createdAt,value
2022-12-23T00:00:38.840Z,46.75
2022-12-23T00:03:06.202Z,43.95
2022-12-23T00:05:40.819Z,50.22
2022-12-23T00:08:07.786Z,57.63
2022-12-23T00:10:38.102Z,55.00
2022-12-23T00:13:23.502Z,56.05
2022-12-23T00:15:50.632Z,57.95
2022-12-23T00:18:17.496Z,50.42
2022-12-23T00:20:44.364Z,57.30
2022-12-23T00:23:11.254Z,54.60
2022-12-23T00:25:42.459Z,57.60
2022-12-23T00:28:18.303Z,62.70
2022-12-23T00:31:07.380Z,64.00
2022-12-23T00:33:45.377Z,60.55
2022-12-23T00:36:15.521Z,60.35
2022-12-23T00:39:01.580Z,59.15
2022-12-23T00:41:47.483Z,62.70
2022-12-23T00:44:14.858Z,64.85
2022-12-23T00:46:41.767Z,55.75
2022-12-23T00:49:27.373Z,61.42
2022-12-23T00:51:54.217Z,57.67
2022-12-23T00:54:21.613Z,59.25
2022-12-23T00:56:48.536Z,68.85
2022-12-23T00:59:16.026Z,59.10
2022-12-23T01:02:03.048Z,59.22
2022-12-23T01:04:48.949Z,59.25
2022-12-23T01:07:16.205Z,65.72
2022-12-23T01:09:43.776Z,53.60
2022-12-23T01:12:11.988Z,71.72
2022-12-23T01:14:44.263Z,73.55
2022-12-23T01:17:13.461Z,66.18
2022-12-23T01:19:40.611Z,62.63
2022-12-23T01:22:09.094Z,64.13
2022-12-23T01:24:41.836Z,64.25
2022-12-23T01:27:24.321Z,64.00
2022-12-23T01:29:51.170Z,67.70
2022-12-23T01:32:17.920Z,67.68
2022-12-23T01:34:44.638Z,67.05
2022-12-23T01:37:11.227Z,72.25
2022-12-23T01:39:37.824Z,60.45
2022-12-23T01:42:22.971Z,74.43
2022-12-23T01:45:04.413Z,67.97
2022-12-23T01:47:40.116Z,63.88
2022-12-23T01:50:21.754Z,64.78
2022-12-23T01:52:51.315Z,59.20
2022-12-23T01:57:46.922Z,67.22
2022-12-23T02:00:35.187Z,64.80
2022-12-23T02:03:20.760Z,65.38
2022-12-23T02:05:48.657Z,60.38
2022-12-23T02:08:35.550Z,56.13
2022-12-23T02:11:17.301Z,59.08
2022-12-23T02:14:17.859Z,64.90
2022-12-23T02:16:55.052Z,64.72
2022-12-23T02:20:07.742Z,69.50
2022-12-23T02:22:49.355Z,67.05
2022-12-23T02:25:31.437Z,66.50
2022-12-23T02:28:12.231Z,58.70
2022-12-23T02:31:09.536Z,66.20
2022-12-23T02:34:11.468Z,64.00
2022-12-23T02:36:50.854Z,65.07
2022-12-23T02:39:42.552Z,64.18
2022-12-23T02:42:15.769Z,65.40
2022-12-23T02:44:53.943Z,68.25
2022-12-23T02:47:24.901Z,65.85
2022-12-23T02:49:56.642Z,70.72
2022-12-23T02:52:29.326Z,68.57
2022-12-23T02:55:04.503Z,69.97
2022-12-23T02:57:38.246Z,59.42
2022-12-23T03:00:06.495Z,58.50
2022-12-23T03:02:37.425Z,58.78
2022-12-23T03:05:04.416Z,61.17
2022-12-23T03:07:38.190Z,62.22
2022-12-23T03:10:27.527Z,69.45
2022-12-23T03:13:17.416Z,60.03
2022-12-23T03:15:48.916Z,70.55
2022-12-23T03:18:18.204Z,57.95
2022-12-23T03:20:51.706Z,63.55
2022-12-23T03:23:32.274Z,59.17
2022-12-23T03:26:16.908Z,62.65
2022-12-23T03:28:49.033Z,63.80
2022-12-23T03:31:22.719Z,66.53
2022-12-23T03:33:57.479Z,57.35
2022-12-23T03:36:29.997Z,60.63
2022-12-23T03:38:58.317Z,66.95
2022-12-23T03:41:31.761Z,52.13
2022-12-23T03:44:09.896Z,58.42
2022-12-23T03:46:52.849Z,57.53
2022-12-23T03:49:46.390Z,59.70
2022-12-23T03:52:21.227Z,55.10
2022-12-23T03:54:54.853Z,47.95
2022-12-23T03:57:27.952Z,44.53
2022-12-23T03:59:56.120Z,48.60
2022-12-23T04:02:32.221Z,47.47
2022-12-23T04:05:30.267Z,39.97
2022-12-23T04:08:28.477Z,45.72
2022-12-23T04:10:57.082Z,37.88
2022-12-23T04:13:23.828Z,38.90
2022-12-23T04:15:50.636Z,34.80
2022-12-23T04:18:17.346Z,34.70
2022-12-23T04:20:43.966Z,31.02
2022-12-23T04:23:10.698Z,32.10
2022-12-23T04:25:37.334Z,30.02
2022-12-23T04:28:04.064Z,33.55
2022-12-23T04:30:34.310Z,31.73
2022-12-23T04:33:01.891Z,34.50
2022-12-23T04:35:28.520Z,32.60
2022-12-23T04:37:55.354Z,31.45
2022-12-23T04:40:22.041Z,31.73
2022-12-23T04:42:48.605Z,29.95
2022-12-23T04:45:15.260Z,32.45
2022-12-23T04:47:41.880Z,30.95
2022-12-23T04:50:13.493Z,26.95
2022-12-23T04:52:40.117Z,28.83
2022-12-23T04:55:07.292Z,29.85
2022-12-23T04:57:33.917Z,26.90
2022-12-23T05:00:00.517Z,31.13
2022-12-23T05:02:27.161Z,27.73
2022-12-23T05:04:53.867Z,26.80
2022-12-23T05:07:20.473Z,26.15
2022-12-23T05:09:47.083Z,32.60
2022-12-23T05:12:13.995Z,28.08
2022-12-23T05:14:40.635Z,30.33
2022-12-23T05:17:08.104Z,30.42
2022-12-23T05:19:34.904Z,31.55
2022-12-23T05:22:01.593Z,29.73
2022-12-23T05:24:28.284Z,26.80
2022-12-23T05:26:59.736Z,25.88
2022-12-23T05:29:30.152Z,27.35
2022-12-23T05:34:23.512Z,26.90
2022-12-23T05:36:50.103Z,31.60
2022-12-23T05:39:16.711Z,31.55
2022-12-23T05:41:43.449Z,32.13
2022-12-23T05:44:10.048Z,32.35
2022-12-23T05:46:36.660Z,34.90
2022-12-23T05:49:03.849Z,32.30
2022-12-23T05:51:30.450Z,37.17
2022-12-23T05:53:57.277Z,39.20
2022-12-23T05:56:23.775Z,36.53
2022-12-23T05:58:50.326Z,35.78
2022-12-23T06:01:17.097Z,33.00
2022-12-23T06:03:43.941Z,33.92
2022-12-23T06:06:10.742Z,36.38
2022-12-23T06:08:37.336Z,33.83
2022-12-23T06:11:05.318Z,35.72
2022-12-23T06:13:31.980Z,35.72
2022-12-23T06:15:58.557Z,37.60
2022-12-23T06:18:25.113Z,38.60
2022-12-23T06:20:51.778Z,42.95
2022-12-23T06:23:18.313Z,38.20
2022-12-23T06:25:44.827Z,45.35
2022-12-23T06:28:11.385Z,40.00
2022-12-23T06:30:37.938Z,40.53
2022-12-23T06:33:04.515Z,44.17
2022-12-23T06:35:31.094Z,38.88
2022-12-23T06:37:57.648Z,39.65
2022-12-23T06:40:24.334Z,40.70
2022-12-23T06:42:50.988Z,43.50
2022-12-23T06:45:17.671Z,43.22
2022-12-23T06:47:44.642Z,48.35
2022-12-23T06:50:11.640Z,44.55
2022-12-23T06:52:38.185Z,44.95
2022-12-23T06:55:05.934Z,43.83
2022-12-23T06:57:32.857Z,46.88
2022-12-23T06:59:59.457Z,44.63
2022-12-23T07:02:26.763Z,41.75
2022-12-23T07:04:54.350Z,42.53
2022-12-23T07:07:21.175Z,42.90
2022-12-23T07:09:47.855Z,42.25
2022-12-23T07:12:14.497Z,41.70
2022-12-23T07:14:41.031Z,43.72
2022-12-23T07:17:07.620Z,41.30
2022-12-23T07:19:34.219Z,36.15
2022-12-23T07:22:02.029Z,43.83
2022-12-23T07:24:28.787Z,46.92
2022-12-23T07:26:55.982Z,41.80
2022-12-23T07:29:22.565Z,43.53
2022-12-23T07:31:49.214Z,46.15
2022-12-23T07:34:15.860Z,49.05
2022-12-23T07:36:42.474Z,43.47
2022-12-23T07:39:09.002Z,46.30
2022-12-23T07:41:35.725Z,46.22
2022-12-23T07:44:06.979Z,43.67
2022-12-23T07:46:33.595Z,44.33
2022-12-23T07:49:02.977Z,40.50
2022-12-23T07:51:29.892Z,41.88
2022-12-23T07:53:56.633Z,41.28
2022-12-23T07:56:23.602Z,45.45
2022-12-23T07:58:53.955Z,40.05
2022-12-23T08:01:21.724Z,43.45
2022-12-23T08:03:48.919Z,46.95
2022-12-23T08:06:16.651Z,47.80
2022-12-23T08:08:45.288Z,43.80
2022-12-23T08:11:13.386Z,47.63
2022-12-23T08:13:42.141Z,51.63
2022-12-23T08:16:10.033Z,47.77
2022-12-23T08:18:39.144Z,45.63
2022-12-23T08:21:08.245Z,44.10
2022-12-23T08:23:35.041Z,45.22
2022-12-23T08:26:14.293Z,42.95
2022-12-23T08:28:44.642Z,42.33
2022-12-23T08:31:26.081Z,45.20
2022-12-23T08:33:57.031Z,40.53
2022-12-23T08:36:28.263Z,40.90
2022-12-23T08:38:56.640Z,44.90
2022-12-23T08:41:26.903Z,41.58
2022-12-23T08:43:54.008Z,44.45
2022-12-23T08:46:21.034Z,43.08
2022-12-23T08:48:49.750Z,45.38
2022-12-23T08:51:19.555Z,44.95
2022-12-23T08:53:47.040Z,42.20
2022-12-23T08:56:17.228Z,48.97
2022-12-23T08:58:45.672Z,48.15
2022-12-23T09:01:15.821Z,48.47
2022-12-23T09:03:43.244Z,44.92
2022-12-23T09:06:16.613Z,45.33
2022-12-23T09:08:49.765Z,50.78
2022-12-23T09:11:20.055Z,47.08
2022-12-23T09:13:46.748Z,50.67
2022-12-23T09:16:14.277Z,44.92
2022-12-23T09:18:41.957Z,48.58
2022-12-23T09:21:14.093Z,47.33
2022-12-23T09:23:41.449Z,49.33
2022-12-23T09:26:10.241Z,46.58
2022-12-23T09:28:37.143Z,44.90
2022-12-23T09:31:11.546Z,46.40
2022-12-23T09:33:38.868Z,46.25
2022-12-23T09:36:06.702Z,46.83
2022-12-23T09:38:34.131Z,43.38
2022-12-23T09:41:27.063Z,43.65
2022-12-23T09:44:03.049Z,42.72
2022-12-23T09:46:34.153Z,40.15
2022-12-23T09:49:13.368Z,41.92
2022-12-23T09:51:39.979Z,42.95
2022-12-23T09:54:17.277Z,41.53
2022-12-23T09:56:57.420Z,40.70
2022-12-23T09:59:41.980Z,52.75
2022-12-23T10:02:11.474Z,42.40
2022-12-23T10:05:06.418Z,41.30
2022-12-23T10:07:40.035Z,42.80
2022-12-23T10:10:21.271Z,47.33
2022-12-23T10:12:52.492Z,41.53
2022-12-23T10:15:35.299Z,36.83
2022-12-23T10:18:24.964Z,37.70
2022-12-23T10:20:59.235Z,45.33
2022-12-23T10:23:36.616Z,45.25
2022-12-23T10:26:31.995Z,39.90
2022-12-23T10:29:14.066Z,39.97
2022-12-23T10:31:47.847Z,36.72
2022-12-23T10:34:24.485Z,39.63
2022-12-23T10:37:11.359Z,39.80
2022-12-23T10:39:50.046Z,38.88
2022-12-23T10:42:25.476Z,39.13
2022-12-23T10:45:31.815Z,39.83
2022-12-23T10:48:17.094Z,37.15
2022-12-23T10:50:52.071Z,36.72
2022-12-23T10:53:41.937Z,38.47
2022-12-23T10:56:08.792Z,37.88
2022-12-23T10:58:42.173Z,38.55
2022-12-23T11:01:18.888Z,39.25
2022-12-23T11:04:17.110Z,40.45
2022-12-23T11:06:48.398Z,36.10
2022-12-23T11:09:21.774Z,35.38
2022-12-23T11:12:08.600Z,37.45
2022-12-23T11:14:56.614Z,37.08
2022-12-23T11:17:31.471Z,34.83
2022-12-23T11:20:07.237Z,34.40
2022-12-23T11:22:33.943Z,36.95
2022-12-23T11:25:31.756Z,34.42
2022-12-23T11:28:06.259Z,32.15
2022-12-23T11:31:11.821Z,35.20
2022-12-23T11:33:56.918Z,31.30
2022-12-23T11:36:27.660Z,40.33
2022-12-23T11:39:12.309Z,36.10
2022-12-23T11:41:43.411Z,37.72
2022-12-23T11:44:22.160Z,42.90
2022-12-23T11:46:49.822Z,42.10
2022-12-23T11:49:24.038Z,42.80
2022-12-23T11:52:28.529Z,47.00
2022-12-23T11:55:01.600Z,43.92
2022-12-23T11:57:46.888Z,41.25
2022-12-23T12:00:23.901Z,38.60
2022-12-23T12:02:53.513Z,41.80
2022-12-23T12:07:59.993Z,37.83
2022-12-23T12:10:30.405Z,40.75
2022-12-23T12:13:01.465Z,49.17
2022-12-23T12:15:34.256Z,48.95
2022-12-23T12:18:05.636Z,46.38
2022-12-23T12:20:39.451Z,47.33
2022-12-23T12:23:14.064Z,56.75
2022-12-23T12:25:46.830Z,50.13
2022-12-23T12:28:32.662Z,49.25
2022-12-23T12:31:11.601Z,49.03
2022-12-23T12:33:52.217Z,47.22
2022-12-23T12:36:37.623Z,46.88
2022-12-23T12:39:04.589Z,47.70
2022-12-23T12:41:44.735Z,52.05
2022-12-23T12:44:52.099Z,44.80
2022-12-23T12:47:53.325Z,46.17
2022-12-23T12:50:29.763Z,48.80
2022-12-23T12:53:03.164Z,44.72
2022-12-23T12:55:34.765Z,44.05
2022-12-23T12:58:04.774Z,43.08
2022-12-23T13:00:52.895Z,44.33
2022-12-23T13:03:48.807Z,44.92
2022-12-23T13:06:28.599Z,43.28
2022-12-23T13:09:09.956Z,45.67
2022-12-23T13:11:48.313Z,43.72
2022-12-23T13:14:38.509Z,42.90
2022-12-23T13:17:37.573Z,47.10
2022-12-23T13:20:37.845Z,52.63
2022-12-23T13:23:42.332Z,47.83
2022-12-23T13:26:21.686Z,48.45
2022-12-23T13:29:03.583Z,47.58
2022-12-23T13:31:55.055Z,47.90
2022-12-23T13:34:43.554Z,49.08
2022-12-23T13:37:25.176Z,52.30
2022-12-23T13:40:11.660Z,51.53
2022-12-23T13:42:42.978Z,56.20
2022-12-23T13:45:18.482Z,50.47
2022-12-23T13:48:01.252Z,52.85
2022-12-23T13:50:47.259Z,52.28
2022-12-23T13:53:23.870Z,56.95
2022-12-23T13:55:57.393Z,52.17
2022-12-23T13:58:27.039Z,57.47
2022-12-23T14:06:25.270Z,54.20
2022-12-23T14:08:54.290Z,53.90
2022-12-23T14:11:26.210Z,62.58
2022-12-23T14:14:05.057Z,61.00
2022-12-23T14:16:49.096Z,55.58
2022-12-23T14:19:18.430Z,63.95
2022-12-23T14:21:58.404Z,56.65
2022-12-23T14:24:27.989Z,62.58
2022-12-23T14:30:10.500Z,61.92
2022-12-23T14:33:23.689Z,61.53
2022-12-23T14:35:56.695Z,66.72
2022-12-23T14:38:28.949Z,60.53
2022-12-23T14:40:59.637Z,63.17
2022-12-23T14:43:51.400Z,70.43
2022-12-23T14:46:36.527Z,63.10
2022-12-23T14:49:37.734Z,66.25
2022-12-23T14:51:51.088Z,61.33
2022-12-23T14:55:00.089Z,63.97
2022-12-23T14:57:33.437Z,65.90
2022-12-23T15:00:05.691Z,63.80
2022-12-23T15:02:41.217Z,65.72
2022-12-23T15:05:08.685Z,74.28
2022-12-23T15:07:41.528Z,70.47
2022-12-23T15:10:29.087Z,68.80
2022-12-23T15:12:59.471Z,74.75
2022-12-23T15:15:29.039Z,68.88
2022-12-23T15:20:35.111Z,71.18
2022-12-23T15:23:08.075Z,75.15
2022-12-23T15:25:39.676Z,66.78
2022-12-23T15:28:15.980Z,65.38
2022-12-23T15:30:52.838Z,67.18
2022-12-23T15:34:00.991Z,65.70
2022-12-23T15:36:10.683Z,69.32
2022-12-23T15:38:39.057Z,70.03
2022-12-23T15:41:13.757Z,66.55
2022-12-23T15:43:41.910Z,65.45
2022-12-23T15:46:16.017Z,75.72
2022-12-23T15:48:43.140Z,68.35
2022-12-23T15:51:49.640Z,69.85
2022-12-23T15:54:22.564Z,66.13
2022-12-23T15:56:51.763Z,68.80
2022-12-23T15:59:24.145Z,69.13
2022-12-23T16:01:51.180Z,71.78
2022-12-23T16:04:26.464Z,67.18
2022-12-23T16:06:54.636Z,71.35
2022-12-23T16:09:21.210Z,75.93
2022-12-23T16:11:51.381Z,66.30
2022-12-23T16:14:31.033Z,73.97
2022-12-23T16:19:52.920Z,60.85
2022-12-23T16:22:28.131Z,70.95
2022-12-23T16:25:24.576Z,62.50
2022-12-23T16:27:58.770Z,61.42
2022-12-23T16:30:36.120Z,60.60
2022-12-23T16:33:06.904Z,66.68
2022-12-23T16:35:36.064Z,62.25
2022-12-23T16:38:14.925Z,62.78
2022-12-23T16:40:46.290Z,63.10
2022-12-23T16:43:13.530Z,68.18
2022-12-23T16:45:41.212Z,73.25
2022-12-23T16:48:16.988Z,65.55
2022-12-23T16:50:51.106Z,62.50
2022-12-23T16:53:17.723Z,64.60
2022-12-23T16:55:51.144Z,63.10
2022-12-23T16:58:21.702Z,62.83
2022-12-23T17:00:48.737Z,57.03
2022-12-23T17:03:40.093Z,51.78
2022-12-23T17:06:09.236Z,57.58
2022-12-23T17:08:35.795Z,55.75
2022-12-23T17:11:17.647Z,62.63
2022-12-23T17:13:45.166Z,56.85
2022-12-23T17:16:20.034Z,51.25
2022-12-23T17:19:12.458Z,50.75
2022-12-23T17:21:40.564Z,46.55
2022-12-23T17:24:09.715Z,52.55
2022-12-23T17:26:36.383Z,51.20
2022-12-23T17:29:05.934Z,43.97
2022-12-23T17:34:00.822Z,49.67
2022-12-23T17:36:33.524Z,44.83
2022-12-23T17:39:00.116Z,41.97
2022-12-23T17:41:32.282Z,52.15
2022-12-23T17:43:59.633Z,49.00
2022-12-23T17:46:34.065Z,46.35
2022-12-23T17:49:09.594Z,43.92
2022-12-23T17:51:36.388Z,45.08
2022-12-23T17:54:04.516Z,37.15
2022-12-23T17:56:31.159Z,32.90
2022-12-23T17:58:57.979Z,31.42
2022-12-23T18:01:30.402Z,29.10
2022-12-23T18:03:59.001Z,34.45
2022-12-23T18:06:27.596Z,28.88
2022-12-23T18:08:54.574Z,31.42
2022-12-23T18:11:33.551Z,29.33
2022-12-23T18:14:01.740Z,30.33
2022-12-23T18:16:36.946Z,29.30
2022-12-23T18:19:03.565Z,30.65
2022-12-23T18:21:30.160Z,31.48
2022-12-23T18:23:59.605Z,36.40
2022-12-23T18:26:26.588Z,29.05
2022-12-23T18:28:54.376Z,33.00
2022-12-23T18:31:24.101Z,38.70
2022-12-23T18:36:26.984Z,52.50
2022-12-23T18:38:54.383Z,47.33
2022-12-23T18:41:30.904Z,47.33
2022-12-23T18:44:01.693Z,50.40
2022-12-23T18:47:23.912Z,51.15
2022-12-23T18:50:30.168Z,46.88
2022-12-23T18:52:56.823Z,46.72
2022-12-23T18:55:23.930Z,54.13
2022-12-23T18:57:54.353Z,52.25
2022-12-23T19:00:32.659Z,49.10
2022-12-23T19:03:32.029Z,43.38
2022-12-23T19:06:06.330Z,59.15
2022-12-23T19:08:35.354Z,46.03
2022-12-23T19:11:08.739Z,43.72
2022-12-23T19:13:35.290Z,47.28
2022-12-23T19:16:01.807Z,45.00
2022-12-23T19:18:28.453Z,52.83
2022-12-23T19:20:57.064Z,54.00
2022-12-23T19:23:23.693Z,49.58
2022-12-23T19:25:55.303Z,47.83
2022-12-23T19:28:22.626Z,43.53
2022-12-23T19:30:49.714Z,42.17
2022-12-23T19:33:16.565Z,42.40
2022-12-23T19:35:43.872Z,46.60
2022-12-23T19:38:12.138Z,47.22
2022-12-23T19:40:39.651Z,46.53
2022-12-23T19:43:06.310Z,53.47
2022-12-23T19:45:33.226Z,55.55
2022-12-23T19:47:59.947Z,54.95
2022-12-23T19:50:27.875Z,56.00
2022-12-23T19:52:56.112Z,61.10
2022-12-23T19:55:23.084Z,58.50
2022-12-23T19:57:49.756Z,65.25
2022-12-23T20:00:16.395Z,66.65
2022-12-23T20:02:43.048Z,60.13
2022-12-23T20:05:10.116Z,64.72
2022-12-23T20:07:36.881Z,67.47
2022-12-23T20:10:04.946Z,64.35
2022-12-23T20:12:31.676Z,70.75
2022-12-23T20:14:58.407Z,65.60
2022-12-23T20:17:25.172Z,72.40
2022-12-23T20:19:51.880Z,67.63
2022-12-23T20:22:18.537Z,68.00
2022-12-23T20:24:45.412Z,63.08
2022-12-23T20:27:14.834Z,70.85
2022-12-23T20:29:42.408Z,67.60
2022-12-23T20:32:08.985Z,63.80
2022-12-23T20:34:39.445Z,63.15
2022-12-23T20:37:07.636Z,68.38
2022-12-23T20:39:34.934Z,67.57
2022-12-23T20:42:01.988Z,66.90
2022-12-23T20:44:37.335Z,66.88
2022-12-23T20:47:07.010Z,59.42
2022-12-23T20:49:33.978Z,66.78
2022-12-23T20:52:01.535Z,59.13
2022-12-23T20:54:33.244Z,65.93
2022-12-23T20:57:04.299Z,62.63
2022-12-23T20:59:33.047Z,62.42
2022-12-23T21:02:00.687Z,55.00
2022-12-23T21:04:27.413Z,61.83
2022-12-23T21:06:54.263Z,53.20
2022-12-23T21:09:20.943Z,46.85
2022-12-23T21:11:48.053Z,48.35
2022-12-23T21:14:15.633Z,48.58
2022-12-23T21:16:43.227Z,45.20
2022-12-23T21:19:17.939Z,41.35
2022-12-23T21:21:45.426Z,50.40
2022-12-23T21:24:12.460Z,46.15
2022-12-23T21:26:39.126Z,48.85
2022-12-23T21:29:08.359Z,44.50
2022-12-23T21:31:37.690Z,36.30
2022-12-23T21:34:05.462Z,45.55
2022-12-23T21:36:35.276Z,36.67
2022-12-23T21:39:03.466Z,44.05
2022-12-23T21:41:34.695Z,42.03
2022-12-23T21:44:02.200Z,39.55
2022-12-23T21:46:29.549Z,32.45
2022-12-23T21:48:57.749Z,35.40
2022-12-23T21:51:30.355Z,38.72
2022-12-23T21:54:01.602Z,36.40
2022-12-23T21:56:30.802Z,30.08
2022-12-23T21:59:02.051Z,37.03
2022-12-23T22:01:29.589Z,36.38
2022-12-23T22:03:56.933Z,36.13
2022-12-23T22:07:01.063Z,42.13
2022-12-23T22:09:27.638Z,34.05
2022-12-23T22:11:56.428Z,35.42
2022-12-23T22:14:22.977Z,38.85
2022-12-23T22:16:49.624Z,37.25
2022-12-23T22:19:16.319Z,29.80
2022-12-23T22:21:42.970Z,45.47
2022-12-23T22:24:09.903Z,40.75
2022-12-23T22:26:36.484Z,36.00
2022-12-23T22:29:05.368Z,39.97
2022-12-23T22:31:49.939Z,31.95
2022-12-23T22:34:19.854Z,32.45
2022-12-23T22:36:47.479Z,31.33
2022-12-23T22:39:20.003Z,26.45
2022-12-23T22:41:49.244Z,27.73
2022-12-23T22:44:16.390Z,27.25
2022-12-23T22:46:43.422Z,34.67
2022-12-23T22:49:14.468Z,36.13
2022-12-23T22:51:41.922Z,30.13
2022-12-23T22:54:08.992Z,34.63
2022-12-23T22:56:36.348Z,36.30
2022-12-23T22:59:03.188Z,25.83
2022-12-23T23:01:32.944Z,25.75
2022-12-23T23:04:02.476Z,20.20
2022-12-23T23:08:57.996Z,13.18
2022-12-23T23:11:25.921Z,17.33
2022-12-23T23:13:52.688Z,15.18
2022-12-23T23:16:19.424Z,15.63
2022-12-23T23:18:46.497Z,15.82
2022-12-23T23:21:14.631Z,13.73
2022-12-23T23:23:42.195Z,12.45
2022-12-23T23:26:10.255Z,9.82
2022-12-23T23:28:38.466Z,10.63
2022-12-23T23:31:39.861Z,11.73
2022-12-23T23:33:52.167Z,11.43
2022-12-23T23:36:18.773Z,12.95
2022-12-23T23:38:45.346Z,14.60
2022-12-23T23:41:14.937Z,16.63
2022-12-23T23:43:43.962Z,13.43
2022-12-23T23:46:10.658Z,14.88
2022-12-23T23:48:37.615Z,13.75
2022-12-23T23:51:05.951Z,16.25
2022-12-23T23:53:32.807Z,16.33
2022-12-23T23:56:07.125Z,16.75
2022-12-23T23:58:35.256Z,11.95
